.
WxDataArchive / Data Records for 2007-10-29
2007-10-28 October 2007 2007-10-30

Data Records for Monday, 29 October 2007

Time	Temp	Chill	HIndex	Humid	Dewpt	 Wind 	HiWind	WindDir	Rain 	Barom 
-----	----	-----	------	-----	-----	------	------	-------	-----	----- 
00:00	33.7	33.7	33.7	92	31.6	0	0	---	0.00	30.482 
00:05	33.7	33.7	33.7	92	31.6	0	0	---	0.00	30.488 
00:10	33.5	33.5	33.5	92	31.4	0	0	---	0.00	30.494 
00:15	33.4	33.4	33.4	92	31.3	0	0	---	0.00	30.495 
00:20	33.4	33.4	33.4	92	31.3	0	0	---	0.00	30.498 
00:25	33.2	33.2	33.2	92	31.1	0	0	---	0.00	30.499 
00:30	33.2	33.2	33.2	92	31.1	0	0	---	0.00	30.499 
00:35	33.1	33.1	33.1	92	31.0	0	0	---	0.00	30.498 
00:40	32.9	32.9	32.9	92	30.8	0	0	---	0.00	30.496 
00:45	32.8	32.8	32.8	92	30.7	0	0	---	0.00	30.496 
00:50	32.8	32.8	32.8	92	30.7	0	0	---	0.00	30.493 
00:55	32.7	32.7	32.7	92	30.6	0	0	---	0.00	30.492 
01:00	32.5	32.5	32.5	92	30.4	0	0	---	0.00	30.492 
01:05	32.5	32.5	32.5	92	30.4	0	0	---	0.00	30.487 
01:10	32.4	32.4	32.4	92	30.3	0	0	---	0.00	30.483 
01:15	32.2	32.2	32.2	92	30.1	0	0	---	0.00	30.481 
01:20	32.1	32.1	32.1	92	30.0	0	0	---	0.00	30.477 
01:25	31.9	31.9	31.9	92	29.8	0	0	---	0.00	30.481 
01:30	31.9	31.9	31.9	92	29.8	0	0	---	0.00	30.482 
01:35	31.9	31.9	31.9	93	30.1	0	0	---	0.00	30.485 
01:40	31.8	31.8	31.8	93	30.0	0	0	---	0.00	30.485 
01:45	31.8	31.8	31.8	93	30.0	0	0	---	0.00	30.483 
01:50	31.6	31.6	31.6	93	29.8	0	0	---	0.00	30.488 
01:55	31.6	31.6	31.6	93	29.8	0	0	---	0.00	30.491 
02:00	31.5	31.5	31.5	93	29.7	0	0	---	0.00	30.490 
02:05	31.3	31.3	31.3	93	29.5	0	0	---	0.00	30.489 
02:10	31.3	31.3	31.3	93	29.5	0	0	---	0.00	30.488 
02:15	31.2	31.2	31.2	93	29.4	0	0	---	0.00	30.488 
02:20	31.2	31.2	31.2	93	29.4	0	0	---	0.00	30.491 
02:25	31.0	31.0	31.0	93	29.2	0	0	---	0.00	30.491 
02:30	31.0	31.0	31.0	93	29.2	0	0	---	0.00	30.490 
02:35	30.9	30.9	30.9	93	29.1	0	0	---	0.00	30.488 
02:40	30.7	30.7	30.7	93	28.9	0	0	---	0.00	30.486 
02:45	30.7	30.7	30.7	93	28.9	0	0	---	0.00	30.489 
02:50	30.6	30.6	30.6	93	28.8	0	0	---	0.00	30.485 
02:55	30.6	30.6	30.6	93	28.8	0	0	---	0.00	30.486 
03:00	30.6	30.6	30.6	94	29.1	0	0	---	0.00	30.486 
03:05	30.6	30.6	30.6	94	29.1	0	0	---	0.00	30.487 
03:10	30.4	30.4	30.4	94	28.9	0	0	---	0.00	30.484 
03:15	30.4	30.4	30.4	94	28.9	0	0	---	0.00	30.483 
03:20	30.3	30.3	30.3	94	28.8	0	0	---	0.00	30.482 
03:25	30.3	30.3	30.3	94	28.8	0	0	---	0.00	30.477 
03:30	30.1	30.1	30.1	94	28.6	0	0	---	0.00	30.475 
03:35	30.1	30.1	30.1	94	28.6	0	0	---	0.00	30.475 
03:40	30.1	30.1	30.1	94	28.6	0	0	---	0.00	30.475 
03:45	30.1	30.1	30.1	94	28.6	0	0	---	0.00	30.476 
03:50	30.1	30.1	30.1	94	28.6	0	0	---	0.00	30.481 
03:55	30.1	30.1	30.1	94	28.6	0	0	---	0.00	30.482 
04:00	30.0	30.0	30.0	94	28.5	0	0	---	0.00	30.483 
04:05	29.8	29.8	29.8	94	28.3	0	0	---	0.00	30.485 
04:10	29.8	29.8	29.8	94	28.3	0	0	---	0.00	30.485 
04:15	29.8	29.8	29.8	94	28.3	0	0	---	0.00	30.485 
04:20	29.7	29.7	29.7	94	28.2	0	0	---	0.00	30.484 
04:25	29.7	29.7	29.7	94	28.2	0	0	---	0.00	30.482 
04:30	29.5	29.5	29.5	94	28.0	0	0	---	0.00	30.482 
04:35	29.7	29.7	29.7	94	28.2	0	0	---	0.00	30.483 
04:40	29.5	29.5	29.5	94	28.0	0	0	---	0.00	30.483 
04:45	29.5	29.5	29.5	94	28.0	0	0	---	0.00	30.484 
04:50	29.5	29.5	29.5	94	28.0	0	0	---	0.00	30.485 
04:55	29.4	29.4	29.4	94	27.9	0	0	---	0.00	30.481 
05:00	29.4	29.4	29.4	94	27.9	0	0	---	0.00	30.479 
05:05	29.3	29.3	29.3	94	27.8	0	0	---	0.00	30.483 
05:10	29.1	29.1	29.1	94	27.6	0	0	---	0.00	30.481 
05:15	29.1	29.1	29.1	94	27.6	0	0	---	0.00	30.481 
05:20	29.1	29.1	29.1	94	27.6	0	0	---	0.00	30.478 
05:25	29.3	29.3	29.3	94	27.8	0	0	---	0.00	30.479 
05:30	29.3	29.3	29.3	94	27.8	0	0	---	0.00	30.479 
05:35	29.1	29.1	29.1	94	27.6	0	0	---	0.00	30.478 
05:40	29.1	29.1	29.1	94	27.6	0	0	---	0.00	30.476 
05:45	29.3	29.3	29.3	95	28.0	0	0	---	0.00	30.476 
05:50	29.4	29.4	29.4	95	28.1	0	0	---	0.00	30.475 
05:55	29.4	29.4	29.4	95	28.1	0	0	---	0.00	30.475 
06:00	29.4	29.4	29.4	95	28.1	0	0	---	0.00	30.475 
06:05	29.4	29.4	29.4	95	28.1	0	0	---	0.00	30.480 
06:10	29.4	29.4	29.4	95	28.1	0	0	---	0.00	30.480 
06:15	29.4	29.4	29.4	95	28.1	0	0	---	0.00	30.480 
06:20	29.4	29.4	29.4	95	28.1	0	0	---	0.00	30.478 
06:25	29.4	29.4	29.4	95	28.1	0	0	---	0.00	30.478 
06:30	29.4	29.4	29.4	95	28.1	0	0	---	0.00	30.479 
06:35	29.4	29.4	29.4	95	28.1	0	0	---	0.00	30.480 
06:40	29.4	29.4	29.4	95	28.1	0	0	---	0.00	30.481 
06:45	29.4	29.4	29.4	95	28.1	0	0	---	0.00	30.482 
06:50	29.4	29.4	29.4	95	28.1	0	0	---	0.00	30.485 
06:55	29.3	29.3	29.3	95	28.0	0	0	---	0.00	30.483 
07:00	29.3	29.3	29.3	95	28.0	0	0	---	0.00	30.482 
07:05	29.3	29.3	29.3	95	28.0	0	0	---	0.00	30.483 
07:10	29.3	29.3	29.3	95	28.0	0	0	---	0.00	30.483 
07:15	29.3	29.3	29.3	95	28.0	0	0	---	0.00	30.483 
07:20	29.4	29.4	29.4	95	28.1	0	0	---	0.00	30.484 
07:25	29.5	29.5	29.5	95	28.2	0	0	---	0.00	30.483 
07:30	29.7	29.7	29.7	95	28.4	0	0	---	0.00	30.483 
07:35	30.0	30.0	30.0	95	28.7	0	0	---	0.00	30.485 
07:40	30.4	30.4	30.4	95	29.1	0	0	---	0.00	30.486 
07:45	31.0	31.0	31.0	96	30.0	0	1	292	0.00	30.484 
07:50	32.1	32.1	32.1	96	31.1	0	1	292	0.00	30.483 
07:55	32.8	32.8	32.8	96	31.8	0	1	292	0.00	30.480 
08:00	33.5	33.5	33.5	96	32.5	0	1	292	0.00	30.479 
08:05	34.1	34.1	34.1	96	33.1	0	3	248	0.00	30.484 
08:10	35.0	35.0	35.0	96	34.0	0	2	248	0.00	30.487 
08:15	35.9	35.9	35.9	94	34.3	0	1	248	0.00	30.490 
08:20	36.5	36.5	36.5	90	33.9	0	2	248	0.00	30.489 
08:25	37.5	37.5	37.5	85	33.4	0	3	248	0.00	30.489 
08:30	38.3	38.3	38.3	81	33.0	0	4	248	0.00	30.491 
08:35	39.3	39.3	39.3	77	32.7	1	3	225	0.00	30.489 
08:40	40.3	40.3	40.3	73	32.3	1	4	225	0.00	30.489 
08:45	41.3	41.3	41.3	69	31.9	1	3	248	0.00	30.487 
08:50	42.2	42.2	42.2	67	32.0	0	2	248	0.00	30.487 
08:55	42.9	42.9	42.9	65	32.0	1	4	248	0.00	30.485 
09:00	43.6	43.6	43.6	65	32.6	0	2	248	0.00	30.481 
09:05	44.2	44.2	44.2	61	31.6	1	5	248	0.00	30.479 
09:10	44.8	44.8	44.8	62	32.6	0	2	248	0.00	30.478 
09:15	45.4	45.4	45.4	59	31.9	1	3	248	0.00	30.481 
09:20	46.0	46.0	46.0	56	31.2	2	6	248	0.00	30.480 
09:25	46.4	46.4	46.4	54	30.7	1	6	225	0.00	30.481 
09:30	46.8	46.8	46.8	53	30.6	2	5	248	0.00	30.483 
09:35	47.1	47.1	47.1	53	30.9	2	9	248	0.00	30.485 
09:40	47.7	47.7	47.7	54	31.9	1	5	248	0.00	30.484 
09:45	48.2	48.2	48.2	54	32.3	1	4	248	0.00	30.484 
09:50	48.6	48.6	48.6	52	31.8	1	5	248	0.00	30.483 
09:55	49.1	49.1	49.1	51	31.8	1	3	248	0.00	30.481 
10:00	49.5	49.5	49.5	50	31.6	2	6	248	0.00	30.479 
10:05	49.8	49.8	49.8	50	31.9	2	5	248	0.00	30.480 
10:10	50.2	50.2	50.2	49	31.8	2	5	248	0.00	30.479 
10:15	50.5	50.5	50.5	50	32.6	1	3	248	0.00	30.480 
10:20	50.7	50.7	50.7	50	32.7	2	5	270	0.00	30.481 
10:25	50.8	50.8	50.8	48	31.8	2	6	248	0.00	30.481 
10:30	51.1	51.1	51.1	50	33.1	1	4	248	0.00	30.481 
10:35	51.6	51.6	51.6	47	32.0	2	5	248	0.00	30.478 
10:40	51.7	51.7	51.7	50	33.7	2	7	248	0.00	30.474 
10:45	52.0	52.0	52.0	47	32.4	2	4	248	0.00	30.471 
10:50	52.3	52.3	52.3	46	32.1	2	3	248	0.00	30.469 
10:55	52.8	52.8	52.8	47	33.1	2	5	248	0.00	30.468 
11:00	52.9	52.9	52.9	45	32.1	3	6	248	0.00	30.467 
11:05	53.1	53.1	53.1	46	32.9	2	5	248	0.00	30.466 
11:10	53.1	53.1	53.1	43	31.2	3	9	248	0.00	30.467 
11:15	53.1	53.1	53.1	44	31.8	3	7	248	0.00	30.466 
11:20	53.2	53.2	53.2	46	33.0	3	6	248	0.00	30.465 
11:25	53.5	53.5	53.5	46	33.2	2	5	248	0.00	30.461 
11:30	53.6	53.6	53.6	43	31.7	2	6	248	0.00	30.460 
11:35	53.9	53.9	53.9	45	33.1	2	6	248	0.00	30.460 
11:40	54.4	54.4	54.4	45	33.5	2	6	248	0.00	30.460 
11:45	54.4	54.4	54.4	42	31.8	2	10	248	0.00	30.459 
11:50	54.4	54.4	54.4	46	34.1	2	9	248	0.00	30.453 
11:55	54.4	54.4	54.4	44	32.9	3	9	248	0.00	30.449 
12:00	54.4	54.4	54.4	42	31.8	2	5	270	0.00	30.448 
12:05	54.7	54.7	54.7	44	33.2	2	4	248	0.00	30.445 
12:10	55.0	55.0	55.0	41	31.7	3	7	248	0.00	30.442 
12:15	54.8	54.8	54.8	41	31.6	2	6	292	0.00	30.436 
12:20	54.8	54.8	54.8	42	32.2	2	7	248	0.00	30.433 
12:25	55.1	55.1	55.1	41	31.8	3	7	248	0.00	30.432 
12:30	55.1	55.1	55.1	43	33.0	3	7	270	0.00	30.431 
12:35	55.1	55.1	55.1	40	31.2	2	5	248	0.00	30.428 
12:40	55.3	55.3	55.3	42	32.6	2	6	248	0.00	30.421 
12:45	55.4	55.4	55.4	41	32.1	2	5	248	0.00	30.419 
12:50	55.9	55.9	55.9	41	32.5	2	5	248	0.00	30.418 
12:55	56.0	56.0	56.0	41	32.6	2	6	248	0.00	30.416 
13:00	56.2	56.2	56.2	41	32.8	2	7	248	0.00	30.416 
13:05	56.2	56.2	56.2	39	31.6	3	6	248	0.00	30.412 
13:10	56.2	56.2	56.2	40	32.2	3	7	270	0.00	30.410 
13:15	56.0	56.0	56.0	39	31.4	3	10	248	0.00	30.405 
13:20	56.0	56.0	56.0	40	32.0	2	7	248	0.00	30.402 
13:25	56.3	56.3	56.3	40	32.3	2	9	248	0.00	30.402 
13:30	56.5	56.5	56.5	39	31.8	3	7	248	0.00	30.401 
13:35	56.5	56.5	56.5	39	31.8	2	5	248	0.00	30.399 
13:40	56.7	56.7	56.7	40	32.7	2	5	248	0.00	30.397 
13:45	57.0	57.0	57.0	40	32.9	2	6	248	0.00	30.396 
13:50	57.2	57.2	57.2	41	33.7	1	3	248	0.00	30.388 
13:55	57.3	57.3	57.3	41	33.8	2	7	225	0.00	30.388 
14:00	57.2	57.2	57.2	40	33.1	2	5	248	0.00	30.387 
14:05	57.2	57.2	57.2	38	31.8	2	5	248	0.00	30.387 
14:10	57.0	57.0	57.0	39	32.3	2	5	270	0.00	30.385 
14:15	57.2	57.2	57.2	38	31.8	2	5	270	0.00	30.383 
14:20	57.5	57.5	57.5	39	32.7	1	6	248	0.00	30.383 
14:25	57.6	57.6	57.6	38	32.2	1	6	248	0.00	30.377 
14:30	57.8	57.8	57.8	39	33.0	2	3	248	0.00	30.372 
14:35	57.8	57.8	57.8	39	33.0	2	5	248	0.00	30.370 
14:40	57.8	57.8	57.8	38	32.4	2	7	248	0.00	30.370 
14:45	57.8	57.8	57.8	38	32.4	2	9	248	0.00	30.370 
14:50	58.0	58.0	58.0	39	33.2	2	4	248	0.00	30.369 
14:55	58.4	58.4	58.4	37	32.2	1	5	225	0.00	30.367 
15:00	58.4	58.4	58.4	37	32.2	2	5	248	0.00	30.367 
15:05	58.3	58.3	58.3	37	32.1	3	12	248	0.00	30.368 
15:10	58.1	58.1	58.1	38	32.6	2	7	248	0.00	30.365 
15:15	58.0	58.0	58.0	38	32.5	2	8	248	0.00	30.365 
15:20	57.6	57.6	57.6	40	33.5	1	3	248	0.00	30.363 
15:25	57.8	57.8	57.8	40	33.6	2	5	248	0.00	30.364 
15:30	58.0	58.0	58.0	37	31.9	2	6	248	0.00	30.360 
15:35	57.8	57.8	57.8	39	33.0	1	4	248	0.00	30.357 
15:40	58.0	58.0	58.0	39	33.2	2	5	248	0.00	30.359 
15:45	58.0	58.0	58.0	39	33.2	1	4	248	0.00	30.357 
15:50	57.8	57.8	57.8	38	32.4	2	5	248	0.00	30.359 
15:55	57.5	57.5	57.5	39	32.7	2	7	248	0.00	30.359 
16:00	57.2	57.2	57.2	40	33.1	2	7	248	0.00	30.360 
16:05	57.2	57.2	57.2	39	32.5	2	5	248	0.00	30.357 
16:10	57.0	57.0	57.0	39	32.3	2	5	248	0.00	30.359 
16:15	57.0	57.0	57.0	41	33.5	1	3	248	0.00	30.358 
16:20	57.0	57.0	57.0	39	32.3	2	10	248	0.00	30.357 
16:25	57.0	57.0	57.0	39	32.3	2	5	248	0.00	30.356 
16:30	57.0	57.0	57.0	39	32.3	2	6	248	0.00	30.356 
16:35	56.7	56.7	56.7	40	32.7	1	6	225	0.00	30.356 
16:40	56.6	56.6	56.6	40	32.6	2	7	248	0.00	30.355 
16:45	56.5	56.5	56.5	40	32.5	2	7	248	0.00	30.356 
16:50	56.3	56.3	56.3	40	32.3	2	5	248	0.00	30.357 
16:55	56.2	56.2	56.2	41	32.8	1	3	248	0.00	30.358 
17:00	56.0	56.0	56.0	41	32.6	0	2	248	0.00	30.358 
17:05	55.7	55.7	55.7	42	33.0	0	3	225	0.00	30.358 
17:10	55.6	55.6	55.6	42	32.9	0	1	225	0.00	30.358 
17:15	55.3	55.3	55.3	43	33.2	1	5	248	0.00	30.358 
17:20	55.0	55.0	55.0	43	32.9	1	3	248	0.00	30.357 
17:25	54.7	54.7	54.7	43	32.6	1	4	248	0.00	30.357 
17:30	54.5	54.5	54.5	45	33.6	0	2	248	0.00	30.358 
17:35	54.2	54.2	54.2	44	32.8	0	2	248	0.00	30.362 
17:40	53.9	53.9	53.9	45	33.1	1	3	248	0.00	30.363 
17:45	53.6	53.6	53.6	46	33.3	0	3	248	0.00	30.361 
17:50	53.5	53.5	53.5	46	33.2	0	2	248	0.00	30.360 
17:55	53.1	53.1	53.1	47	33.4	0	1	248	0.00	30.359 
18:00	52.8	52.8	52.8	48	33.7	0	1	248	0.00	30.359 
18:05	52.3	52.3	52.3	50	34.2	0	0	---	0.00	30.360 
18:10	51.6	51.6	51.6	50	33.6	0	0	---	0.00	30.363 
18:15	51.0	51.0	51.0	51	33.5	0	0	---	0.00	30.363 
18:20	50.4	50.4	50.4	53	33.9	0	0	---	0.00	30.364 
18:25	49.8	49.8	49.8	55	34.3	0	0	---	0.00	30.365 
18:30	49.4	49.4	49.4	56	34.4	0	0	---	0.00	30.365 
18:35	48.9	48.9	48.9	57	34.3	0	0	---	0.00	30.365 
18:40	48.3	48.3	48.3	59	34.6	0	0	---	0.00	30.366 
18:45	47.9	47.9	47.9	59	34.3	0	0	---	0.00	30.368 
18:50	47.4	47.4	47.4	61	34.6	0	0	---	0.00	30.367 
18:55	47.0	47.0	47.0	62	34.7	0	0	---	0.00	30.366 
19:00	46.5	46.5	46.5	63	34.6	0	0	---	0.00	30.364 
19:05	46.1	46.1	46.1	63	34.2	0	1	248	0.00	30.360 
19:10	45.8	45.8	45.8	64	34.3	0	0	---	0.00	30.358 
19:15	45.7	45.7	45.7	65	34.6	0	0	---	0.00	30.358 
19:20	45.5	45.5	45.5	65	34.4	0	0	---	0.00	30.358 
19:25	45.4	45.4	45.4	66	34.7	0	0	---	0.00	30.361 
19:30	45.2	45.2	45.2	67	34.9	0	0	---	0.00	30.361 
19:35	45.1	45.1	45.1	68	35.2	0	0	---	0.00	30.360 
19:40	44.8	44.8	44.8	68	34.9	0	0	---	0.00	30.359 
19:45	44.5	44.5	44.5	69	35.0	0	0	---	0.00	30.357 
19:50	44.2	44.2	44.2	70	35.0	0	0	---	0.00	30.360 
19:55	43.8	43.8	43.8	70	34.7	0	0	---	0.00	30.359 
20:00	43.5	43.5	43.5	72	35.1	0	0	---	0.00	30.356 
20:05	43.1	43.1	43.1	73	35.0	0	0	---	0.00	30.347 
20:10	42.9	42.9	42.9	73	34.9	0	0	---	0.00	30.348 
20:15	42.8	42.8	42.8	73	34.8	0	0	---	0.00	30.343 
20:20	42.8	42.8	42.8	73	34.8	0	0	---	0.00	30.340 
20:25	42.9	42.9	42.9	73	34.9	0	0	---	0.00	30.340 
20:30	42.9	42.9	42.9	73	34.9	0	0	---	0.00	30.340 
20:35	42.9	42.9	42.9	73	34.9	0	0	---	0.00	30.341 
20:40	42.9	42.9	42.9	73	34.9	0	0	---	0.00	30.342 
20:45	42.8	42.8	42.8	73	34.8	0	0	---	0.00	30.343 
20:50	42.6	42.6	42.6	73	34.6	0	0	---	0.00	30.343 
20:55	42.3	42.3	42.3	74	34.6	0	0	---	0.00	30.343 
21:00	42.2	42.2	42.2	75	34.9	0	0	---	0.00	30.344 
21:05	41.9	41.9	41.9	75	34.6	0	0	---	0.00	30.339 
21:10	41.6	41.6	41.6	76	34.6	0	0	---	0.00	30.343 
21:15	41.3	41.3	41.3	77	34.6	0	0	---	0.00	30.346 
21:20	41.1	41.1	41.1	77	34.4	0	0	---	0.00	30.347 
21:25	40.9	40.9	40.9	78	34.6	0	0	---	0.00	30.348 
21:30	40.6	40.6	40.6	78	34.3	0	0	---	0.00	30.350 
21:35	40.5	40.5	40.5	79	34.5	0	0	---	0.00	30.349 
21:40	40.2	40.2	40.2	79	34.2	0	0	---	0.00	30.346 
21:45	40.1	40.1	40.1	79	34.1	0	0	---	0.00	30.345 
21:50	39.9	39.9	39.9	81	34.6	0	0	---	0.00	30.344 
21:55	39.8	39.8	39.8	81	34.5	0	0	---	0.00	30.342 
22:00	39.6	39.6	39.6	81	34.3	0	0	---	0.00	30.339 
22:05	39.5	39.5	39.5	82	34.5	0	0	---	0.00	30.337 
22:10	39.5	39.5	39.5	82	34.5	0	0	---	0.00	30.340 
22:15	39.3	39.3	39.3	82	34.3	0	0	---	0.00	30.338 
22:20	39.2	39.2	39.2	83	34.5	0	0	---	0.00	30.336 
22:25	39.1	39.1	39.1	83	34.4	0	0	---	0.00	30.336 
22:30	38.8	38.8	38.8	83	34.1	0	0	---	0.00	30.336 
22:35	38.6	38.6	38.6	84	34.2	0	0	---	0.00	30.336 
22:40	38.6	38.6	38.6	84	34.2	0	0	---	0.00	30.337 
22:45	38.5	38.5	38.5	84	34.1	0	0	---	0.00	30.336 
22:50	38.3	38.3	38.3	85	34.2	0	0	---	0.00	30.335 
22:55	38.2	38.2	38.2	85	34.1	0	0	---	0.00	30.337 
23:00	38.0	38.0	38.0	85	33.9	0	0	---	0.00	30.336 
23:05	38.0	38.0	38.0	86	34.2	0	0	---	0.00	30.335 
23:10	38.0	38.0	38.0	86	34.2	0	0	---	0.00	30.334 
23:15	38.3	38.3	38.3	86	34.5	0	0	---	0.00	30.333 
23:20	38.5	38.5	38.5	85	34.4	0	0	---	0.00	30.332 
23:25	38.8	38.8	38.8	85	34.7	0	0	---	0.00	30.332 
23:30	38.9	38.9	38.9	84	34.5	0	0	---	0.00	30.333 
23:35	38.9	38.9	38.9	84	34.5	0	0	---	0.00	30.333 
23:40	38.9	38.9	38.9	84	34.5	0	0	---	0.00	30.333 
23:45	38.8	38.8	38.8	84	34.4	0	0	---	0.00	30.333 
23:50	38.6	38.6	38.6	84	34.2	0	0	---	0.00	30.334 
23:55	38.6	38.6	38.6	84	34.2	0	0	---	0.00	30.334 

CoCoRaHS
IN-AL-39
A2 Web Hosting
Creative Commons License
GoDaddy
Look for:

loaded 2017-12-13 15:57:21 • last modified 2010-11-18 10:43:29
Privacy PolicyDisclaimer
• wx.awcolley.com is powered by PmWiki v.2002016 •
• all content (unless otherwise noted) © 2017 A W Colley